Time;durP1;ratioP1;P1;durP2;ratioP2;P2;SDS_P1;SDS_P2;PMS_P1;PMS_P2;Temp;Humidity;BMP_temperature;BMP_pressure;BME280_temperature;BME280_humidity;BME280_pressure;Samples;Min_cycle;Max_cycle;Signal;HPM_P1;HPM_P2
2022/06/26 00:00:08;;;;;;;5.70;2.90;;;;;;;22.49;55.90;97158.16;5046883;28;20296;-69
2022/06/26 00:02:34;;;;;;;3.17;2.87;;;;;;;22.43;56.18;97151.84;5044622;28;20194;-69
2022/06/26 00:05:00;;;;;;;7.87;3.40;;;;;;;22.46;56.32;97155.94;5046571;28;20433;-70
2022/06/26 00:07:26;;;;;;;7.40;4.83;;;;;;;22.58;56.21;97161.28;5033140;28;20466;-69
2022/06/26 00:09:51;;;;;;;5.93;4.30;;;;;;;22.63;55.97;97170.22;5036609;28;20266;-69
2022/06/26 00:12:17;;;;;;;4.37;3.87;;;;;;;22.52;55.68;97182.53;5036052;28;20180;-70
2022/06/26 00:14:42;;;;;;;4.47;3.00;;;;;;;22.48;56.16;97185.91;5035575;28;20249;-69
2022/06/26 00:17:08;;;;;;;2.73;2.53;;;;;;;22.53;56.27;97183.34;5036373;28;20176;-69
2022/06/26 00:19:34;;;;;;;4.00;3.10;;;;;;;22.56;56.18;97188.22;5041912;28;20321;-70
2022/06/26 00:21:59;;;;;;;4.00;3.70;;;;;;;22.64;56.02;97195.09;5049259;28;20175;-69
2022/06/26 00:24:25;;;;;;;7.10;4.50;;;;;;;22.69;56.16;97197.84;5046193;28;20185;-68
2022/06/26 00:26:50;;;;;;;6.77;4.40;;;;;;;22.77;55.58;97210.91;5052411;28;20634;-70
2022/06/26 00:29:16;;;;;;;2.67;2.43;;;;;;;22.80;54.69;97226.47;5052485;28;20281;-70
2022/06/26 00:31:41;;;;;;;5.27;2.10;;;;;;;22.80;52.92;97231.81;5052919;28;20263;-68
2022/06/26 00:34:07;;;;;;;2.00;1.40;;;;;;;22.85;51.86;97220.44;5050838;28;20194;-69
2022/06/26 00:36:32;;;;;;;1.70;1.60;;;;;;;22.89;51.54;97223.44;5052282;28;20232;-69
2022/06/26 00:38:58;;;;;;;3.53;1.70;;;;;;;22.97;51.56;97215.91;5052293;28;20302;-69
2022/06/26 00:41:23;;;;;;;1.63;1.50;;;;;;;22.97;50.71;97225.75;5052602;28;20195;-69
2022/06/26 00:43:49;;;;;;;1.73;1.27;;;;;;;22.94;50.20;97231.56;5052515;28;20634;-68
2022/06/26 00:46:15;;;;;;;3.43;1.50;;;;;;;23.08;49.78;97242.84;5052206;28;20193;-69
2022/06/26 00:48:40;;;;;;;3.77;1.47;;;;;;;23.15;49.38;97239.03;5050860;28;20580;-68
2022/06/26 00:51:06;;;;;;;1.70;1.60;;;;;;;23.19;49.18;97246.59;5050687;28;20215;-69
2022/06/26 00:53:32;;;;;;;1.60;1.50;;;;;;;23.28;49.21;97247.88;5050905;28;20187;-68
2022/06/26 00:55:58;;;;;;;2.13;1.60;;;;;;;23.21;49.62;97241.84;5052767;28;20438;-69
2022/06/26 00:58:24;;;;;;;1.60;1.50;;;;;;;23.31;49.73;97256.25;5051552;28;20219;-70
2022/06/26 01:00:49;;;;;;;3.10;1.60;;;;;;;23.34;49.85;97254.97;5050803;28;20457;-69
2022/06/26 01:03:15;;;;;;;4.10;1.70;;;;;;;23.34;49.97;97254.97;5050758;28;20197;-69
2022/06/26 01:05:40;;;;;;;1.73;1.63;;;;;;;23.36;50.04;97250.19;5052220;28;20195;-69
2022/06/26 01:08:09;;;;;;;2.13;1.70;;;;;;;23.38;50.22;97255.31;5051358;28;20260;-69
2022/06/26 01:10:34;;;;;;;3.53;1.53;;;;;;;23.41;50.36;97257.50;5051763;28;20199;-69
2022/06/26 01:13:00;;;;;;;3.53;1.97;;;;;;;23.41;50.50;97253.00;5052887;28;20512;-69
2022/06/26 01:15:26;;;;;;;2.30;2.03;;;;;;;23.40;50.69;97253.22;5051691;28;20266;-68
2022/06/26 01:17:53;;;;;;;2.57;1.40;;;;;;;23.38;50.85;97257.97;5046463;28;21033;-69
2022/06/26 01:20:18;;;;;;;1.60;1.50;;;;;;;23.38;50.86;97248.09;5050328;28;20461;-69
2022/06/26 01:22:44;;;;;;;1.50;1.40;;;;;;;23.40;50.74;97243.34;5051430;28;20913;-69
2022/06/26 01:25:09;;;;;;;3.07;1.60;;;;;;;23.40;51.22;97234.50;5049627;28;20187;-69
2022/06/26 01:27:42;;;;;;;1.60;1.50;;;;;;;23.31;51.37;97231.38;5051371;28;20218;-69
2022/06/26 01:30:08;;;;;;;2.00;1.80;;;;;;;23.34;51.51;97209.50;5052055;28;20262;-69
2022/06/26 01:32:34;;;;;;;1.90;1.80;;;;;;;23.37;51.58;97211.72;5054663;28;20436;-69
2022/06/26 01:34:59;;;;;;;1.60;1.50;;;;;;;23.33;51.71;97212.44;5053862;28;20426;-69
2022/06/26 01:37:25;;;;;;;1.77;1.67;;;;;;;23.32;51.97;97206.25;5050706;28;20222;-69
2022/06/26 01:39:52;;;;;;;1.90;1.70;;;;;;;23.38;51.81;97210.69;5051321;28;20242;-68
2022/06/26 01:42:17;;;;;;;2.73;1.70;;;;;;;23.44;51.65;97259.72;5049022;28;20497;-69
2022/06/26 01:44:43;;;;;;;2.90;1.83;;;;;;;23.46;51.39;97263.78;5051015;28;20658;-69
2022/06/26 01:47:08;;;;;;;1.73;1.60;;;;;;;23.43;51.76;97242.06;5050627;28;20609;-69
2022/06/26 01:49:34;;;;;;;1.80;1.70;;;;;;;23.39;51.83;97249.75;5051304;28;20182;-69
2022/06/26 01:51:59;;;;;;;2.70;1.97;;;;;;;23.43;52.30;97252.75;5051114;28;20724;-69
2022/06/26 01:54:24;;;;;;;1.80;1.70;;;;;;;23.35;52.44;97239.75;5051022;28;20214;-69
2022/06/26 01:56:50;;;;;;;2.40;2.00;;;;;;;23.35;52.49;97237.88;5050931;28;20183;-70
2022/06/26 01:59:15;;;;;;;2.57;2.07;;;;;;;23.33;52.79;97239.16;5050851;28;20215;-69
2022/06/26 02:01:41;;;;;;;2.80;1.73;;;;;;;23.34;52.65;97244.25;5051453;28;20235;-68
2022/06/26 02:04:06;;;;;;;1.80;1.70;;;;;;;23.29;52.49;97254.88;5063076;28;20218;-68
2022/06/26 02:06:32;;;;;;;2.57;1.87;;;;;;;23.25;52.40;97254.50;5050701;28;20205;-69
2022/06/26 02:08:58;;;;;;;6.97;1.87;;;;;;;23.29;52.37;97265.56;5051090;28;20221;-68
2022/06/26 02:14:09;;;;;;;2.30;1.57;;;;;;;23.27;52.54;97267.66;5050871;28;20217;-68
2022/06/26 02:16:34;;;;;;;1.53;1.43;;;;;;;23.17;52.89;97266.34;5050876;28;20952;-69
2022/06/26 02:19:00;;;;;;;1.70;1.60;;;;;;;23.10;52.92;97273.66;5050643;28;20449;-69
2022/06/26 02:21:27;;;;;;;3.47;1.90;;;;;;;23.03;53.17;97275.63;5050562;28;20727;-69
2022/06/26 02:23:54;;;;;;;2.53;1.90;;;;;;;23.01;53.19;97283.06;5049172;28;20550;-69
2022/06/26 02:26:20;;;;;;;1.60;1.50;;;;;;;22.97;53.33;97279.19;5050284;28;20433;-70
2022/06/26 02:28:46;;;;;;;2.40;2.00;;;;;;;22.95;53.44;97281.28;5050783;28;20795;-69
2022/06/26 02:31:11;;;;;;;2.07;1.87;;;;;;;22.98;53.23;97280.84;5051259;28;20436;-69
2022/06/26 02:33:38;;;;;;;3.03;1.90;;;;;;;23.00;53.16;97279.56;5049145;28;20202;-68
2022/06/26 02:36:05;;;;;;;3.40;2.00;;;;;;;22.89;54.24;97271.53;5050599;28;20281;-69
2022/06/26 02:38:30;;;;;;;2.53;1.80;;;;;;;22.94;54.39;97264.47;5050223;28;20570;-67
2022/06/26 02:40:56;;;;;;;3.10;1.97;;;;;;;22.99;54.75;97263.75;5050766;28;20955;-68
2022/06/26 02:43:23;;;;;;;2.10;2.00;;;;;;;22.96;54.53;97251.69;5032443;28;20183;-68
2022/06/26 02:45:49;;;;;;;2.80;1.87;;;;;;;22.99;54.95;97258.41;5050523;28;20186;-69
2022/06/26 02:48:15;;;;;;;2.00;1.80;;;;;;;23.02;54.89;97253.41;5018885;28;20544;-68
2022/06/26 02:50:41;;;;;;;2.90;2.20;;;;;;;23.03;54.53;97254.25;5050546;28;20504;-68
2022/06/26 02:53:07;;;;;;;2.17;1.83;;;;;;;23.02;54.61;97260.63;5047115;28;20429;-68
2022/06/26 02:55:32;;;;;;;1.97;1.77;;;;;;;22.93;54.81;97267.38;5056047;28;20194;-68
2022/06/26 02:57:58;;;;;;;1.80;1.70;;;;;;;22.90;55.35;97267.81;5053800;28;20445;-68
2022/06/26 03:00:24;;;;;;;2.10;2.00;;;;;;;22.80;55.27;97274.56;5053091;28;20245;-68
2022/06/26 03:02:49;;;;;;;2.10;1.80;;;;;;;22.69;55.90;97269.97;5047760;28;20191;-68
2022/06/26 03:05:15;;;;;;;3.30;1.97;;;;;;;22.69;55.85;97267.31;5053097;28;20214;-68
2022/06/26 03:07:41;;;;;;;2.03;1.67;;;;;;;22.72;55.95;97266.06;5053940;28;20226;-68
2022/06/26 03:10:07;;;;;;;2.50;1.87;;;;;;;22.66;55.93;97260.56;5052148;28;20175;-68
2022/06/26 03:12:32;;;;;;;2.70;2.07;;;;;;;22.63;56.09;97257.56;5053251;28;20210;-68
2022/06/26 03:14:58;;;;;;;3.73;1.87;;;;;;;22.58;56.56;97249.41;5054402;28;20952;-68
2022/06/26 03:17:24;;;;;;;5.03;1.67;;;;;;;22.39;57.55;97249.44;5055543;28;20187;-68
2022/06/26 03:19:50;;;;;;;2.13;1.93;;;;;;;22.32;57.29;97246.03;5054302;28;20234;-69
2022/06/26 03:22:16;;;;;;;1.87;1.70;;;;;;;22.40;57.40;97248.41;5053728;28;20823;-68
2022/06/26 03:24:42;;;;;;;2.97;1.97;;;;;;;22.44;57.12;97251.47;5062182;28;20190;-68
2022/06/26 03:27:08;;;;;;;2.20;2.00;;;;;;;22.41;57.13;97255.41;5053526;28;20183;-69
2022/06/26 03:29:33;;;;;;;3.50;2.10;;;;;;;22.29;57.47;97249.19;5053869;28;20191;-69
2022/06/26 03:31:59;;;;;;;2.17;1.97;;;;;;;22.19;57.82;97255.84;5056413;28;20528;-69
2022/06/26 03:34:24;;;;;;;3.40;1.60;;;;;;;22.22;58.33;97247.41;5053254;28;20201;-69
2022/06/26 03:36:50;;;;;;;3.73;2.03;;;;;;;22.27;58.11;97246.72;5056217;28;20677;-68
2022/06/26 03:39:16;;;;;;;2.60;2.00;;;;;;;22.25;57.61;97252.28;5053053;28;20214;-68
2022/06/26 03:41:41;;;;;;;1.97;1.83;;;;;;;22.23;57.65;97254.38;5052106;28;20198;-68
2022/06/26 03:44:07;;;;;;;5.03;1.73;;;;;;;22.28;57.63;97261.69;5048549;28;20202;-68
2022/06/26 03:46:33;;;;;;;5.53;2.00;;;;;;;22.32;57.55;97278.06;5043749;28;20206;-68
2022/06/26 03:49:02;;;;;;;2.80;1.80;;;;;;;22.29;57.60;97283.88;5053290;28;20678;-68
2022/06/26 03:51:27;;;;;;;3.40;1.87;;;;;;;22.32;57.74;97276.22;5036653;28;20928;-70
2022/06/26 03:53:53;;;;;;;5.03;2.20;;;;;;;22.34;57.70;97276.81;5056596;28;20436;-68
2022/06/26 03:56:18;;;;;;;1.80;1.70;;;;;;;22.40;57.66;97275.09;5052625;28;20194;-68
2022/06/26 03:58:44;;;;;;;5.83;2.30;;;;;;;22.39;57.66;97278.81;5053867;28;20953;-67
2022/06/26 04:01:10;;;;;;;2.67;1.87;;;;;;;22.41;57.56;97276.75;5060602;28;20210;-67
2022/06/26 04:03:35;;;;;;;2.30;1.90;;;;;;;22.40;57.78;97283.91;5052916;28;20179;-68
2022/06/26 04:06:01;;;;;;;6.80;2.20;;;;;;;22.32;58.07;97284.25;5052875;28;20433;-70
2022/06/26 04:08:26;;;;;;;3.37;2.33;;;;;;;22.32;58.34;97289.56;5051488;28;20222;-69
2022/06/26 04:10:52;;;;;;;3.00;2.27;;;;;;;22.41;58.19;97292.78;5052036;28;20266;-70
2022/06/26 04:13:17;;;;;;;2.10;2.00;;;;;;;22.36;58.20;97288.09;5053081;28;20191;-70
2022/06/26 04:15:43;;;;;;;2.23;1.80;;;;;;;22.32;58.69;97283.41;5061008;28;20267;-69
2022/06/26 04:18:09;;;;;;;3.57;2.03;;;;;;;22.25;59.49;97295.00;5051789;28;20217;-70
2022/06/26 04:20:34;;;;;;;1.93;1.73;;;;;;;22.23;59.31;97289.06;5050872;28;20202;-69
2022/06/26 04:23:09;;;;;;;2.20;2.00;;;;;;;22.31;59.03;97287.94;5051877;28;20433;-68
2022/06/26 04:25:36;;;;;;;2.30;2.10;;;;;;;22.35;59.20;97285.63;5050355;28;20182;-67
2022/06/26 04:28:03;;;;;;;2.23;1.70;;;;;;;22.32;58.97;97286.06;5052200;28;20445;-67
2022/06/26 04:30:29;;;;;;;3.60;2.03;;;;;;;22.28;58.73;97277.72;5049951;28;20916;-69
2022/06/26 04:32:55;;;;;;;3.40;2.40;;;;;;;22.27;59.11;97280.63;5031056;28;20476;-70
2022/06/26 04:35:20;;;;;;;3.53;2.20;;;;;;;22.21;59.11;97272.47;5027843;28;20359;-68
2022/06/26 04:37:48;;;;;;;3.97;2.30;;;;;;;22.21;59.40;97267.13;5035313;28;20207;-68
2022/06/26 04:40:14;;;;;;;6.63;2.17;;;;;;;22.13;59.56;97264.78;5051388;28;20242;-68
2022/06/26 04:42:41;;;;;;;3.73;2.67;;;;;;;22.17;59.57;97267.81;5053287;28;20453;-68
2022/06/26 04:45:08;;;;;;;2.30;2.10;;;;;;;22.20;59.52;97265.50;5052048;28;20187;-69
2022/06/26 04:47:33;;;;;;;2.63;2.40;;;;;;;22.21;59.78;97271.66;5051798;28;20520;-69
2022/06/26 04:49:59;;;;;;;3.10;2.10;;;;;;;22.24;59.21;97268.56;5052558;28;20963;-69
2022/06/26 04:52:25;;;;;;;2.50;2.30;;;;;;;22.23;59.19;97265.06;5048618;28;20218;-69
2022/06/26 04:54:50;;;;;;;2.03;1.93;;;;;;;22.27;59.41;97268.06;5051720;28;20262;-69
2022/06/26 04:57:16;;;;;;;2.40;2.20;;;;;;;22.30;59.37;97258.81;5046708;28;20200;-68
2022/06/26 04:59:43;;;;;;;2.97;2.27;;;;;;;22.35;59.30;97261.59;5051667;28;20203;-69
2022/06/26 05:02:09;;;;;;;4.53;2.17;;;;;;;22.34;59.72;97262.66;5033529;28;20183;-70
2022/06/26 05:04:35;;;;;;;2.00;1.90;;;;;;;22.43;59.65;97258.63;5051775;28;20768;-69
2022/06/26 05:07:00;;;;;;;3.87;2.63;;;;;;;22.44;59.37;97270.16;5048558;28;20444;-69
2022/06/26 05:09:26;;;;;;;3.00;2.70;;;;;;;22.48;59.42;97274.00;5051310;28;20206;-69
2022/06/26 05:11:51;;;;;;;2.77;2.33;;;;;;;22.52;59.56;97281.31;5052348;28;20194;-69
2022/06/26 05:14:18;;;;;;;2.80;2.60;;;;;;;22.47;59.74;97281.19;5050928;28;20258;-70
2022/06/26 05:16:43;;;;;;;2.50;2.30;;;;;;;22.53;59.79;97288.31;5051096;28;20225;-69
2022/06/26 05:19:08;;;;;;;2.90;2.40;;;;;;;22.52;59.61;97286.66;5049957;28;20522;-69
2022/06/26 05:21:34;;;;;;;3.53;2.10;;;;;;;22.57;59.60;97294.00;5051892;28;20754;-68
2022/06/26 05:24:00;;;;;;;2.87;2.40;;;;;;;22.65;59.70;97300.88;5051115;28;20191;-69
2022/06/26 05:26:25;;;;;;;2.83;2.17;;;;;;;22.69;59.38;97302.03;5051015;28;20183;-68
2022/06/26 05:28:51;;;;;;;2.93;2.40;;;;;;;22.68;58.85;97305.75;5049258;28;20572;-69
2022/06/26 05:31:17;;;;;;;5.50;2.17;;;;;;;22.75;58.71;97309.13;5054615;28;20183;-69
2022/06/26 05:33:42;;;;;;;2.13;1.90;;;;;;;22.80;58.65;97303.94;5050944;28;20202;-70
2022/06/26 05:36:08;;;;;;;2.27;2.07;;;;;;;22.82;58.69;97304.50;5052973;28;20198;-71
2022/06/26 05:38:34;;;;;;;2.30;2.10;;;;;;;22.89;58.92;97303.59;5050673;28;20231;-69
2022/06/26 05:41:00;;;;;;;4.10;2.10;;;;;;;22.89;59.22;97304.41;5049023;28;20215;-70
2022/06/26 05:43:26;;;;;;;2.30;2.07;;;;;;;22.90;59.67;97305.22;5050874;28;20771;-70
2022/06/26 05:45:52;;;;;;;3.00;2.20;;;;;;;22.97;59.85;97308.59;5051179;28;20646;-70
2022/06/26 05:48:17;;;;;;;2.67;2.43;;;;;;;22.96;59.87;97310.47;5049537;28;20253;-70
2022/06/26 05:50:43;;;;;;;2.20;1.90;;;;;;;22.94;59.89;97317.06;5045956;28;20273;-70
2022/06/26 05:53:08;;;;;;;3.27;2.07;;;;;;;23.01;59.88;97323.94;5046315;28;20278;-70
2022/06/26 05:55:34;;;;;;;2.00;1.80;;;;;;;23.19;59.99;97318.75;5044701;28;20601;-70
2022/06/26 05:58:00;;;;;;;3.10;2.20;;;;;;;23.36;59.71;97324.25;5034227;28;20204;-70
2022/06/26 06:00:26;;;;;;;1.73;1.53;;;;;;;23.52;59.08;97320.88;5034622;28;20216;-70
2022/06/26 06:02:52;;;;;;;2.03;1.93;;;;;;;23.71;58.25;97329.59;5039109;28;20530;-69
2022/06/26 06:05:18;;;;;;;2.10;2.00;;;;;;;23.87;57.38;97324.56;5033605;28;20525;-70
2022/06/26 06:07:43;;;;;;;2.83;2.50;;;;;;;24.01;56.49;97330.50;5033411;28;20211;-70
2022/06/26 06:10:09;;;;;;;2.30;1.87;;;;;;;24.14;55.88;97329.44;5038144;28;20477;-70
2022/06/26 06:12:35;;;;;;;6.83;2.10;;;;;;;24.26;54.55;97327.53;5035750;28;20270;-70
2022/06/26 06:15:01;;;;;;;2.00;1.90;;;;;;;24.39;54.53;97316.56;5037604;28;20257;-70
2022/06/26 06:17:36;;;;;;;2.10;2.00;;;;;;;24.52;53.79;97322.66;5034344;28;20426;-72
2022/06/26 06:20:04;;;;;;;2.33;1.83;;;;;;;24.65;52.95;97327.75;5034666;28;20477;-70
2022/06/26 06:22:30;;;;;;;1.90;1.80;;;;;;;24.77;51.96;97332.25;5032200;28;20837;-70
2022/06/26 06:24:55;;;;;;;3.17;1.80;;;;;;;24.92;51.93;97324.50;5032160;28;20533;-71
2022/06/26 06:27:21;;;;;;;2.10;1.60;;;;;;;25.07;51.60;97315.06;5032734;28;20541;-70
2022/06/26 06:29:47;;;;;;;1.37;1.27;;;;;;;25.18;49.56;97316.88;5037696;28;20190;-70
2022/06/26 06:32:12;;;;;;;1.30;1.20;;;;;;;25.29;48.62;97315.97;5037112;28;20650;-70
2022/06/26 06:34:37;;;;;;;4.70;1.27;;;;;;;25.43;47.15;97321.81;5031250;28;20234;-70
2022/06/26 06:37:03;;;;;;;1.50;1.30;;;;;;;25.48;46.72;97321.06;5033604;28;20233;-69
2022/06/26 06:39:29;;;;;;;2.60;1.23;;;;;;;25.44;46.03;97325.31;5038337;28;20203;-70
2022/06/26 06:41:54;;;;;;;1.90;1.13;;;;;;;25.40;46.52;97329.53;5037931;28;20187;-70
2022/06/26 06:44:20;;;;;;;1.40;1.30;;;;;;;25.43;46.49;97334.44;5034502;28;20187;-70
2022/06/26 06:46:45;;;;;;;2.77;1.30;;;;;;;25.43;45.59;97334.44;5042854;28;20191;-70
2022/06/26 06:49:11;;;;;;;2.10;0.97;;;;;;;25.51;45.80;97325.97;5036790;28;20230;-69
2022/06/26 06:51:36;;;;;;;1.73;1.10;;;;;;;25.64;45.82;97332.03;5042731;28;20211;-70
2022/06/26 06:54:02;;;;;;;2.13;1.00;;;;;;;25.78;45.65;97330.63;5042196;28;20198;-70
2022/06/26 06:56:27;;;;;;;1.17;1.07;;;;;;;25.86;43.58;97332.88;5034016;28;20187;-71
2022/06/26 06:58:53;;;;;;;1.90;1.17;;;;;;;25.97;43.27;97339.19;5034502;28;20219;-71
2022/06/26 07:01:18;;;;;;;1.10;1.00;;;;;;;26.03;42.10;97340.88;5040747;28;20298;-70
2022/06/26 07:03:44;;;;;;;3.10;1.00;;;;;;;26.18;42.82;97343.00;5035327;28;20240;-70
2022/06/26 07:06:09;;;;;;;2.47;1.10;;;;;;;26.32;42.51;97346.09;5031893;28;20716;-69
2022/06/26 07:08:35;;;;;;;3.83;1.10;;;;;;;26.46;41.86;97345.72;5034660;28;20212;-70
2022/06/26 07:11:01;;;;;;;1.30;1.17;;;;;;;26.58;41.81;97338.31;5039734;28;20317;-71
2022/06/26 07:13:27;;;;;;;1.67;1.20;;;;;;;26.70;41.60;97348.94;5044997;28;20548;-70
2022/06/26 07:15:52;;;;;;;1.43;1.17;;;;;;;26.79;40.61;97342.06;5048226;28;20429;-70
2022/06/26 07:18:18;;;;;;;1.40;1.30;;;;;;;26.91;40.65;97338.41;5046937;28;20214;-69
2022/06/26 07:20:43;;;;;;;1.43;1.33;;;;;;;27.00;40.36;97334.16;5037975;28;20261;-70
2022/06/26 07:23:09;;;;;;;1.50;1.07;;;;;;;27.09;40.39;97346.06;5032829;28;20243;-70
2022/06/26 07:25:34;;;;;;;1.40;1.10;;;;;;;27.13;40.28;97341.81;5040985;28;20183;-70
2022/06/26 07:28:00;;;;;;;2.37;1.07;;;;;;;27.26;40.26;97337.06;5036102;28;20237;-69
2022/06/26 07:30:26;;;;;;;1.30;1.13;;;;;;;27.38;40.52;97334.22;5047724;28;20182;-70
2022/06/26 07:32:51;;;;;;;1.70;1.10;;;;;;;27.50;39.88;97342.09;5038028;28;20275;-70
2022/06/26 07:35:17;;;;;;;3.33;2.00;;;;;;;27.60;39.84;97347.53;5032895;28;20267;-69
2022/06/26 07:37:42;;;;;;;1.30;1.20;;;;;;;27.70;39.48;97346.81;5044894;28;20290;-70
2022/06/26 07:40:08;;;;;;;2.90;1.00;;;;;;;27.82;39.23;97344.72;5005156;28;20204;-70
2022/06/26 07:42:34;;;;;;;2.20;1.17;;;;;;;27.88;38.90;97350.94;5058543;28;20261;-71
2022/06/26 07:45:00;;;;;;;1.57;1.10;;;;;;;27.95;38.91;97353.41;5041243;28;20510;-70
2022/06/26 07:47:25;;;;;;;2.77;1.50;;;;;;;27.99;38.52;97343.75;5044056;28;20221;-71
2022/06/26 07:49:50;;;;;;;7.53;2.07;;;;;;;28.07;39.18;97347.81;5048613;28;20258;-69
2022/06/26 07:52:16;;;;;;;2.10;1.00;;;;;;;28.20;39.27;97344.69;5046042;28;20184;-71
2022/06/26 07:54:42;;;;;;;3.67;1.30;;;;;;;28.31;39.48;97346.34;5050486;28;20186;-71
2022/06/26 07:57:07;;;;;;;2.67;1.70;;;;;;;28.41;39.06;97333.97;5043698;28;20547;-71
2022/06/26 07:59:33;;;;;;;1.20;1.10;;;;;;;28.42;38.61;97335.59;5049801;28;20234;-69
2022/06/26 08:01:59;;;;;;;1.23;1.13;;;;;;;28.54;38.88;97335.34;5045565;28;20193;-70
2022/06/26 08:04:24;;;;;;;1.30;1.20;;;;;;;28.61;38.21;97325.91;5051037;28;20681;-70
2022/06/26 08:06:50;;;;;;;2.00;1.50;;;;;;;28.74;37.95;97323.81;5046347;28;20210;-70
2022/06/26 08:09:15;;;;;;;1.43;1.33;;;;;;;28.77;38.22;97336.75;5043609;28;20213;-70
2022/06/26 08:11:41;;;;;;;1.80;1.40;;;;;;;28.87;38.62;97331.38;5037759;28;20249;-70
2022/06/26 08:14:07;;;;;;;3.77;1.40;;;;;;;28.99;38.59;97333.00;5038565;28;20211;-69
2022/06/26 08:16:33;;;;;;;1.70;1.27;;;;;;;29.12;37.73;97330.59;5037262;28;20476;-70
2022/06/26 08:18:58;;;;;;;2.03;1.00;;;;;;;29.23;37.41;97336.81;5046469;28;20202;-71
2022/06/26 08:24:07;;;;;;;1.20;1.10;;;;;;;29.35;36.81;97327.66;5033976;28;20561;-70
2022/06/26 08:26:33;;;;;;;1.57;1.10;;;;;;;29.44;36.55;97339.50;5037977;28;20436;-70
2022/06/26 08:28:58;;;;;;;1.00;0.90;;;;;;;29.51;36.22;97328.44;5041343;28;20200;-70
2022/06/26 08:31:24;;;;;;;1.67;1.10;;;;;;;29.58;36.11;97332.47;5052876;28;20175;-70
2022/06/26 08:33:49;;;;;;;1.10;0.90;;;;;;;29.54;35.39;97336.78;5045520;28;20206;-70
2022/06/26 08:36:15;;;;;;;2.00;1.30;;;;;;;29.61;35.62;97333.00;5048884;28;20180;-71
2022/06/26 08:38:40;;;;;;;1.10;1.00;;;;;;;29.73;35.50;97334.31;5044578;28;20601;-70
2022/06/26 08:41:08;;;;;;;1.80;1.13;;;;;;;29.82;36.13;97328.34;5040266;28;20212;-70
2022/06/26 08:43:33;;;;;;;1.30;1.10;;;;;;;29.92;36.04;97322.94;5045526;28;20183;-69
2022/06/26 08:46:03;;;;;;;2.40;1.50;;;;;;;29.93;35.41;97339.94;5048224;28;21099;-69
2022/06/26 08:48:35;;;;;;;4.17;1.53;;;;;;;30.03;36.15;97339.94;5036868;28;20203;-68
2022/06/26 08:51:01;;;;;;;2.90;1.10;;;;;;;30.16;35.45;97339.34;5039577;28;20516;-68
2022/06/26 08:53:27;;;;;;;1.90;1.30;;;;;;;30.26;35.58;97340.38;5045620;28;20441;-68
2022/06/26 08:55:53;;;;;;;3.00;1.47;;;;;;;30.26;34.97;97327.69;5037835;28;20434;-69
2022/06/26 08:58:18;;;;;;;2.13;1.20;;;;;;;30.37;35.35;97339.22;5034710;28;20576;-68
2022/06/26 09:00:46;;;;;;;2.80;1.40;;;;;;;30.44;35.26;97331.63;5038248;28;20210;-68
2022/06/26 09:03:12;;;;;;;1.20;1.10;;;;;;;30.57;34.98;97341.03;5035740;28;20306;-69
2022/06/26 09:05:38;;;;;;;1.40;1.00;;;;;;;30.60;34.95;97335.09;5041319;28;20454;-69
2022/06/26 09:08:04;;;;;;;1.70;1.23;;;;;;;30.67;34.90;97345.59;5054559;28;20447;-68
2022/06/26 09:10:34;;;;;;;2.23;1.00;;;;;;;30.77;35.21;97345.53;5037644;28;20171;-69
2022/06/26 09:13:00;;;;;;;1.50;1.40;;;;;;;30.80;34.86;97350.38;5045198;28;20179;-70
2022/06/26 09:15:26;;;;;;;2.70;1.13;;;;;;;30.86;34.53;97342.25;5041489;28;20845;-69
2022/06/26 09:18:05;;;;;;;2.10;0.97;;;;;;;30.92;34.83;97338.38;5037938;28;20215;-68
2022/06/26 09:20:32;;;;;;;1.40;0.97;;;;;;;31.05;34.78;97340.47;5038716;28;20221;-68
2022/06/26 09:22:59;;;;;;;2.53;1.20;;;;;;;31.10;34.67;97340.44;5033541;28;20458;-69
2022/06/26 09:25:40;;;;;;;6.37;1.30;;;;;;;31.21;33.88;97338.47;5045675;28;20823;-69
2022/06/26 09:28:07;;;;;;;1.10;1.00;;;;;;;31.34;34.01;97345.13;5036957;28;20956;-67
2022/06/26 09:30:33;;;;;;;4.50;1.30;;;;;;;31.48;33.99;97349.88;5049509;28;20913;-67
2022/06/26 09:33:01;;;;;;;3.33;1.33;;;;;;;31.61;34.13;97348.38;5042476;28;20569;-68
2022/06/26 09:35:26;;;;;;;1.30;1.17;;;;;;;31.68;32.93;97346.97;5047400;28;20187;-69
2022/06/26 09:37:52;;;;;;;1.40;1.20;;;;;;;31.76;32.79;97347.47;5043394;28;20445;-69
2022/06/26 09:40:18;;;;;;;1.80;0.93;;;;;;;31.84;33.15;97342.22;5055240;28;20298;-69
2022/06/26 09:42:43;;;;;;;1.27;1.10;;;;;;;31.95;32.43;97345.63;5043486;28;20646;-68
2022/06/26 09:45:09;;;;;;;3.10;1.10;;;;;;;32.10;32.37;97341.13;5040358;28;20445;-69
2022/06/26 09:47:35;;;;;;;1.30;1.13;;;;;;;32.20;32.21;97345.63;5044641;28;20196;-68
2022/06/26 09:50:04;;;;;;;1.27;0.97;;;;;;;32.00;32.24;97345.56;5040958;28;20444;-69
2022/06/26 09:52:31;;;;;;;1.20;1.10;;;;;;;31.85;32.53;97341.13;5045613;28;20205;-70
2022/06/26 09:54:58;;;;;;;1.60;1.07;;;;;;;31.86;32.66;97342.72;5045528;28;20422;-72
2022/06/26 09:57:26;;;;;;;1.30;1.20;;;;;;;31.84;33.07;97342.22;5037238;28;20452;-69
2022/06/26 09:59:52;;;;;;;1.10;0.77;;;;;;;31.90;32.74;97348.38;5036148;28;20485;-70
2022/06/26 10:07:50;;;;;;;1.63;0.90;;;;;;;31.83;32.76;97340.59;5043452;28;20442;-70
2022/06/26 10:10:21;;;;;;;2.00;0.80;;;;;;;31.92;32.57;97343.47;5033987;28;20442;-70
2022/06/26 10:13:05;;;;;;;1.33;0.87;;;;;;;32.07;33.11;97341.69;5041908;28;20191;-70
2022/06/26 10:16:10;;;;;;;2.27;1.03;;;;;;;32.11;32.56;97342.72;5040513;28;20421;-71
2022/06/26 10:19:05;;;;;;;3.47;1.03;;;;;;;32.16;32.74;97345.38;5041117;28;20469;-69
2022/06/26 10:21:35;;;;;;;0.90;0.80;;;;;;;32.29;32.21;97335.75;5037714;28;20523;-70
2022/06/26 10:24:02;;;;;;;1.57;0.90;;;;;;;32.32;32.34;97333.28;5033455;28;20468;-71
2022/06/26 10:26:27;;;;;;;1.20;1.00;;;;;;;32.38;32.45;97335.91;5042612;28;20425;-71
2022/06/26 10:29:08;;;;;;;1.00;0.90;;;;;;;32.50;32.64;97343.59;5039963;28;20956;-71
2022/06/26 10:31:42;;;;;;;1.10;1.00;;;;;;;32.53;32.70;97335.69;5047334;28;20198;-72
2022/06/26 10:34:10;;;;;;;1.93;1.03;;;;;;;32.67;33.10;97329.53;5038923;28;20426;-71
2022/06/26 10:36:35;;;;;;;3.20;1.20;;;;;;;32.75;32.95;97326.19;5050266;28;20429;-72
2022/06/26 10:39:06;;;;;;;1.20;0.90;;;;;;;32.82;32.38;97333.97;5045102;28;20469;-71
2022/06/26 10:44:40;;;;;;;1.60;1.00;;;;;;;32.86;32.22;97334.97;5039154;28;20516;-70
2022/06/26 10:47:14;;;;;;;1.17;1.07;;;;;;;32.93;32.44;97325.38;5041365;28;20425;-71
2022/06/26 10:50:06;;;;;;;2.70;1.20;;;;;;;33.05;32.18;97335.78;5039708;28;20460;-69
2022/06/26 10:52:31;;;;;;;1.90;1.33;;;;;;;33.20;31.70;97332.00;5044139;28;20441;-70
2022/06/26 10:55:02;;;;;;;1.17;1.07;;;;;;;33.30;31.14;97322.06;5038857;28;20747;-70
2022/06/26 10:57:37;;;;;;;1.00;0.90;;;;;;;33.35;30.73;97316.56;5034449;28;20579;-71
2022/06/26 11:00:08;;;;;;;2.70;1.13;;;;;;;33.26;31.37;97319.13;5041576;28;20465;-71
2022/06/26 11:02:44;;;;;;;1.73;1.13;;;;;;;33.07;31.06;97339.00;5045307;28;20436;-71
2022/06/26 11:05:10;;;;;;;1.20;1.00;;;;;;;32.81;32.09;97325.00;5050132;28;20872;-69
2022/06/26 11:07:44;;;;;;;3.87;1.40;;;;;;;32.61;32.11;97326.91;5042327;28;20487;-69
2022/06/26 11:10:14;;;;;;;1.00;0.90;;;;;;;32.48;31.72;97317.59;5040164;28;20803;-69
2022/06/26 11:12:41;;;;;;;2.40;1.13;;;;;;;32.36;32.84;97311.78;5032146;28;20442;-70
2022/06/26 11:15:19;;;;;;;1.13;1.03;;;;;;;32.26;32.44;97315.44;5038133;28;20784;-70
2022/06/26 11:17:52;;;;;;;1.50;1.20;;;;;;;32.21;33.03;97312.78;5038880;28;20518;-70
2022/06/26 11:23:01;;;;;;;2.40;0.97;;;;;;;32.17;33.50;97317.16;5040594;28;20933;-70
2022/06/26 11:25:27;;;;;;;4.83;1.00;;;;;;;32.17;32.55;97306.31;5046808;28;20487;-70
2022/06/26 11:27:55;;;;;;;2.67;1.00;;;;;;;32.23;32.51;97305.19;5040465;28;20213;-71
2022/06/26 11:30:21;;;;;;;4.13;0.90;;;;;;;32.25;32.29;97303.00;5034804;28;20178;-70
2022/06/26 11:32:46;;;;;;;1.37;1.13;;;;;;;32.30;32.63;97302.94;5045249;28;20441;-69
2022/06/26 11:35:12;;;;;;;1.03;0.80;;;;;;;32.34;32.32;97303.16;5050239;28;20428;-70
2022/06/26 11:37:38;;;;;;;1.20;1.00;;;;;;;32.35;32.03;97301.25;5044393;28;20179;-70
2022/06/26 11:40:14;;;;;;;1.80;1.20;;;;;;;32.51;32.29;97301.84;5039124;28;20624;-69
2022/06/26 11:42:40;;;;;;;1.63;0.97;;;;;;;32.57;32.34;97308.81;5044078;28;20183;-69
2022/06/26 11:45:06;;;;;;;1.83;1.20;;;;;;;32.57;32.02;97308.81;5040861;28;20435;-69
2022/06/26 11:47:34;;;;;;;1.30;1.00;;;;;;;32.66;31.94;97306.22;5045625;28;20774;-69